createdAt,value
2019-05-20T00:00:19.744Z,1008.13
2019-05-20T00:01:19.745Z,1008.15
2019-05-20T00:02:25.764Z,1008.16
2019-05-20T00:03:20.727Z,1008.22
2019-05-20T00:04:19.705Z,1008.11
2019-05-20T00:05:19.716Z,1008.13
2019-05-20T00:06:19.684Z,1008.17
2019-05-20T00:07:19.703Z,1008.12
2019-05-20T00:08:19.655Z,1008.14
2019-05-20T00:09:19.651Z,1008.19
2019-05-20T00:10:19.647Z,1008.19
2019-05-20T00:11:19.675Z,1008.18
2019-05-20T00:12:19.627Z,1008.16
2019-05-20T00:13:19.624Z,1008.22
2019-05-20T00:14:19.603Z,1008.21
2019-05-20T00:15:19.593Z,1008.15
2019-05-20T00:16:19.596Z,1008.21
2019-05-20T00:17:19.585Z,1008.14
2019-05-20T00:18:19.552Z,1008.22
2019-05-20T00:19:19.543Z,1008.21
2019-05-20T00:20:19.533Z,1008.25
2019-05-20T00:21:19.527Z,1008.25
2019-05-20T00:22:19.534Z,1008.24
2019-05-20T00:23:19.623Z,1008.22
2019-05-20T00:24:19.502Z,1008.15
2019-05-20T00:25:19.474Z,1008.17
2019-05-20T00:26:30.061Z,1008.15
2019-05-20T00:27:19.484Z,1008.17
2019-05-20T00:28:19.442Z,1008.17
2019-05-20T00:29:19.454Z,1008.19
2019-05-20T00:30:19.421Z,1008.19
2019-05-20T00:31:19.425Z,1008.16
2019-05-20T00:32:19.425Z,1008.17
2019-05-20T00:33:19.449Z,1008.23
2019-05-20T00:34:34.167Z,1008.21
2019-05-20T00:35:20.396Z,1008.18
2019-05-20T00:36:19.374Z,1008.21
2019-05-20T00:37:19.350Z,1008.27
2019-05-20T00:38:19.345Z,1008.21
2019-05-20T00:39:19.379Z,1008.24
2019-05-20T00:40:19.320Z,1008.21
2019-05-20T00:41:19.341Z,1008.25
2019-05-20T00:42:19.302Z,1008.24
2019-05-20T00:43:19.313Z,1008.20
2019-05-20T00:44:19.287Z,1008.19
2019-05-20T00:45:19.291Z,1008.17
2019-05-20T00:46:19.396Z,1008.21
2019-05-20T00:47:19.261Z,1008.18
2019-05-20T00:48:19.247Z,1008.26
2019-05-20T00:49:19.236Z,1008.19
2019-05-20T00:50:19.240Z,1008.20
2019-05-20T00:51:19.221Z,1008.26
2019-05-20T00:52:19.199Z,1008.22
2019-05-20T00:53:19.202Z,1008.22
2019-05-20T00:54:19.190Z,1008.22
2019-05-20T00:55:19.244Z,1008.23
2019-05-20T00:56:19.149Z,1008.24
2019-05-20T00:57:29.295Z,1008.15
2019-05-20T00:58:19.132Z,1008.22
2019-05-20T00:59:19.122Z,1008.19
2019-05-20T01:00:19.114Z,1008.12
2019-05-20T01:01:19.135Z,1008.17
2019-05-20T01:02:19.094Z,1008.14
2019-05-20T01:03:19.114Z,1008.17
2019-05-20T01:04:19.071Z,1008.18
2019-05-20T01:05:19.073Z,1008.15
2019-05-20T01:06:19.086Z,1008.19
2019-05-20T01:07:19.052Z,1008.21
2019-05-20T01:08:19.023Z,1008.21
2019-05-20T01:09:19.046Z,1008.23
2019-05-20T01:10:19.016Z,1008.16
2019-05-20T01:11:19.028Z,1008.15
2019-05-20T01:12:19.099Z,1008.19
2019-05-20T01:13:18.973Z,1008.17
2019-05-20T01:14:19.021Z,1008.16
2019-05-20T01:15:18.960Z,1008.17
2019-05-20T01:16:18.939Z,1008.17
2019-05-20T01:17:18.976Z,1008.13
2019-05-20T01:18:18.938Z,1008.18
2019-05-20T01:19:18.919Z,1008.14
2019-05-20T01:20:18.914Z,1008.12
2019-05-20T01:21:18.879Z,1008.16
2019-05-20T01:22:18.897Z,1008.12
2019-05-20T01:23:18.929Z,1008.15
2019-05-20T01:24:18.870Z,1008.12
2019-05-20T01:25:18.836Z,1008.18
2019-05-20T01:26:18.845Z,1008.20
2019-05-20T01:27:18.830Z,1008.15
2019-05-20T01:28:30.882Z,1008.12
2019-05-20T01:29:18.789Z,1008.12
2019-05-20T01:30:18.788Z,1008.15
2019-05-20T01:31:18.782Z,1008.15
2019-05-20T01:32:19.349Z,1008.19
2019-05-20T01:33:18.760Z,1008.14
2019-05-20T01:34:18.802Z,1008.19
2019-05-20T01:35:18.742Z,1008.09
2019-05-20T01:36:18.718Z,1008.12
2019-05-20T01:37:18.749Z,1008.14
2019-05-20T01:38:18.713Z,1008.08
2019-05-20T01:39:18.698Z,1008.09
2019-05-20T01:40:18.689Z,1008.16
2019-05-20T01:41:18.746Z,1008.13
2019-05-20T01:42:18.706Z,1008.14
2019-05-20T01:43:18.647Z,1008.10
2019-05-20T01:44:18.662Z,1008.08
2019-05-20T01:45:18.669Z,1008.07
2019-05-20T01:46:18.632Z,1008.06
2019-05-20T01:47:18.617Z,1008.14
2019-05-20T01:48:18.605Z,1008.09
2019-05-20T01:49:18.620Z,1008.12
2019-05-20T01:50:18.589Z,1008.10
2019-05-20T01:51:18.577Z,1008.10
2019-05-20T01:52:18.579Z,1008.15
2019-05-20T01:53:18.568Z,1008.04
2019-05-20T01:54:18.536Z,1008.07
2019-05-20T01:55:18.591Z,1008.10
2019-05-20T01:56:18.528Z,1008.12
2019-05-20T01:57:18.506Z,1008.08
2019-05-20T01:58:18.495Z,1008.11
2019-05-20T01:59:29.096Z,1008.13
2019-05-20T02:00:18.486Z,1008.10
2019-05-20T02:01:18.522Z,1008.14
2019-05-20T02:02:18.444Z,1008.16
2019-05-20T02:03:31.341Z,1008.16
2019-05-20T02:04:19.433Z,1008.17
2019-05-20T02:05:18.456Z,1008.11
2019-05-20T02:06:18.411Z,1008.14
2019-05-20T02:07:18.436Z,1008.16
2019-05-20T02:08:18.393Z,1008.16
2019-05-20T02:09:18.385Z,1008.15
2019-05-20T02:10:18.370Z,1008.12
2019-05-20T02:11:18.351Z,1008.18
2019-05-20T02:12:18.364Z,1008.15
2019-05-20T02:13:18.363Z,1008.13
2019-05-20T02:14:18.331Z,1008.14
2019-05-20T02:15:18.342Z,1008.05
2019-05-20T02:16:18.322Z,1008.08
2019-05-20T02:17:18.349Z,1008.11
2019-05-20T02:18:18.299Z,1008.08
2019-05-20T02:19:18.280Z,1008.10
2019-05-20T02:20:18.276Z,1008.18
2019-05-20T02:21:18.273Z,1008.05
2019-05-20T02:22:18.229Z,1008.10
2019-05-20T02:23:18.269Z,1008.06
2019-05-20T02:24:18.250Z,1008.08
2019-05-20T02:25:18.225Z,1008.07
2019-05-20T02:26:18.232Z,1008.05
2019-05-20T02:27:18.213Z,1008.04
2019-05-20T02:28:18.189Z,1008.11
2019-05-20T02:29:18.181Z,1008.06
2019-05-20T02:30:28.272Z,1008.09
2019-05-20T02:31:18.156Z,1008.12
2019-05-20T02:32:18.149Z,1008.10
2019-05-20T02:33:18.129Z,1008.04
2019-05-20T02:34:18.147Z,1008.05
2019-05-20T02:35:18.095Z,1008.05
2019-05-20T02:36:18.085Z,1007.98
2019-05-20T02:37:18.090Z,1008.02
2019-05-20T02:38:18.099Z,1008.05
2019-05-20T02:39:18.076Z,1008.06
2019-05-20T02:40:18.098Z,1008.04
2019-05-20T02:41:18.051Z,1008.11
2019-05-20T02:42:18.043Z,1008.12
2019-05-20T02:43:18.031Z,1008.08
2019-05-20T02:44:18.029Z,1008.01
2019-05-20T02:45:17.997Z,1008.04
2019-05-20T02:46:18.011Z,1008.04
2019-05-20T02:47:17.977Z,1008.04
2019-05-20T02:48:17.969Z,1008.06
2019-05-20T02:49:17.995Z,1008.03
2019-05-20T02:50:17.959Z,1008.02
2019-05-20T02:51:17.953Z,1008.02
2019-05-20T02:52:17.922Z,1008.04
2019-05-20T02:53:17.915Z,1008.04
2019-05-20T02:54:17.898Z,1007.93
2019-05-20T02:55:17.909Z,1007.97
2019-05-20T02:56:17.894Z,1007.95
2019-05-20T02:57:17.884Z,1007.98
2019-05-20T02:58:17.869Z,1007.99
2019-05-20T02:59:17.855Z,1007.98
2019-05-20T03:00:17.862Z,1007.96
2019-05-20T03:01:28.308Z,1007.91
2019-05-20T03:02:17.821Z,1007.97
2019-05-20T03:03:17.822Z,1007.95
2019-05-20T03:04:17.811Z,1007.92
2019-05-20T03:05:17.806Z,1007.93
2019-05-20T03:06:17.793Z,1007.95
2019-05-20T03:07:17.790Z,1007.98
2019-05-20T03:08:17.752Z,1007.96
2019-05-20T03:09:17.743Z,1007.96
2019-05-20T03:10:17.744Z,1007.99
2019-05-20T03:11:17.731Z,1007.97
2019-05-20T03:12:17.721Z,1008.02
2019-05-20T03:13:17.716Z,1007.99
2019-05-20T03:14:17.719Z,1008.02
2019-05-20T03:15:17.702Z,1007.97
2019-05-20T03:16:17.722Z,1007.98
2019-05-20T03:17:17.672Z,1007.97
2019-05-20T03:18:17.659Z,1007.94
2019-05-20T03:19:17.651Z,1007.96
2019-05-20T03:20:17.630Z,1007.98
2019-05-20T03:21:17.635Z,1007.97
2019-05-20T03:22:17.612Z,1007.98
2019-05-20T03:23:17.610Z,1008.03
2019-05-20T03:24:17.630Z,1007.92
2019-05-20T03:25:17.600Z,1007.91
2019-05-20T03:26:17.586Z,1007.97
2019-05-20T03:27:17.563Z,1007.89
2019-05-20T03:28:17.557Z,1007.94
2019-05-20T03:29:17.537Z,1007.96
2019-05-20T03:30:17.538Z,1007.90
2019-05-20T03:31:17.545Z,1007.87
2019-05-20T03:32:27.693Z,1007.95
2019-05-20T03:33:17.491Z,1007.88
2019-05-20T03:34:41.477Z,1007.87
2019-05-20T03:35:18.469Z,1007.89
2019-05-20T03:36:17.465Z,1007.90
2019-05-20T03:37:17.453Z,1007.87
2019-05-20T03:38:17.482Z,1007.86
2019-05-20T03:39:17.420Z,1007.91
2019-05-20T03:40:17.430Z,1007.82
2019-05-20T03:41:17.505Z,1007.86
2019-05-20T03:42:17.390Z,1007.86
2019-05-20T03:43:17.393Z,1007.79
2019-05-20T03:44:17.441Z,1007.91
2019-05-20T03:45:17.370Z,1007.87
2019-05-20T03:46:17.357Z,1007.86
2019-05-20T03:47:17.373Z,1007.82
2019-05-20T03:48:17.327Z,1007.89
2019-05-20T03:49:17.359Z,1007.85
2019-05-20T03:50:17.315Z,1007.82
2019-05-20T03:51:17.299Z,1007.91
2019-05-20T03:52:17.300Z,1007.87
2019-05-20T03:53:17.275Z,1007.85
2019-05-20T03:54:17.276Z,1007.91
2019-05-20T03:55:17.277Z,1007.91
2019-05-20T03:56:17.252Z,1007.89
2019-05-20T03:57:17.246Z,1007.84
2019-05-20T03:58:17.282Z,1007.80
2019-05-20T03:59:17.233Z,1007.85
2019-05-20T04:00:17.219Z,1007.76
2019-05-20T04:01:17.199Z,1007.66
2019-05-20T04:02:17.175Z,1007.79
2019-05-20T04:03:27.702Z,1007.77
2019-05-20T04:04:17.172Z,1007.77
2019-05-20T04:05:17.196Z,1007.73
2019-05-20T04:06:17.139Z,1007.79
2019-05-20T04:07:17.125Z,1007.77
2019-05-20T04:08:17.118Z,1007.76
2019-05-20T04:09:17.096Z,1007.79
2019-05-20T04:10:17.121Z,1007.79
2019-05-20T04:11:17.108Z,1007.82
2019-05-20T04:12:17.090Z,1007.82
2019-05-20T04:13:17.076Z,1007.76
2019-05-20T04:14:17.034Z,1007.75
2019-05-20T04:15:17.034Z,1007.77
2019-05-20T04:16:17.038Z,1007.77
2019-05-20T04:17:17.033Z,1007.80
2019-05-20T04:18:17.026Z,1007.82
2019-05-20T04:19:17.002Z,1007.74
2019-05-20T04:20:17.016Z,1007.78
2019-05-20T04:21:16.981Z,1007.71
2019-05-20T04:22:16.986Z,1007.77
2019-05-20T04:23:16.971Z,1007.72
2019-05-20T04:24:16.963Z,1007.76
2019-05-20T04:25:16.946Z,1007.80
2019-05-20T04:26:16.925Z,1007.81
2019-05-20T04:27:16.945Z,1007.81
2019-05-20T04:28:16.916Z,1007.75
2019-05-20T04:29:16.894Z,1007.76
2019-05-20T04:30:18.960Z,1007.73
2019-05-20T04:31:16.866Z,1007.78
2019-05-20T04:32:16.901Z,1007.70
2019-05-20T04:33:16.845Z,1007.70
2019-05-20T04:34:29.425Z,1007.73
2019-05-20T04:35:21.955Z,1007.73
2019-05-20T04:36:17.801Z,1007.74
2019-05-20T04:37:16.841Z,1007.68
2019-05-20T04:38:16.792Z,1007.70
2019-05-20T04:39:16.801Z,1007.67
2019-05-20T04:40:16.785Z,1007.69
2019-05-20T04:41:16.765Z,1007.65
2019-05-20T04:42:16.778Z,1007.69
2019-05-20T04:43:16.742Z,1007.63
2019-05-20T04:44:16.724Z,1007.67
2019-05-20T04:45:16.709Z,1007.72
2019-05-20T04:46:16.712Z,1007.74
2019-05-20T04:47:16.713Z,1007.69
2019-05-20T04:48:16.714Z,1007.69
2019-05-20T04:49:16.676Z,1007.67
2019-05-20T04:50:16.668Z,1007.71
2019-05-20T04:51:16.675Z,1007.72
2019-05-20T04:52:16.656Z,1007.67
2019-05-20T04:53:16.711Z,1007.67
2019-05-20T04:54:16.628Z,1007.63
2019-05-20T04:55:16.610Z,1007.66
2019-05-20T04:56:16.610Z,1007.61
2019-05-20T04:57:16.593Z,1007.61
2019-05-20T04:58:16.573Z,1007.65
2019-05-20T04:59:16.634Z,1007.62
2019-05-20T05:00:16.586Z,1007.59
2019-05-20T05:01:16.563Z,1007.57
2019-05-20T05:02:16.537Z,1007.60
2019-05-20T05:03:16.543Z,1007.61
2019-05-20T05:04:16.512Z,1007.54
2019-05-20T05:05:37.282Z,1007.59
2019-05-20T05:06:17.498Z,1007.63
2019-05-20T05:07:16.480Z,1007.67
2019-05-20T05:08:16.462Z,1007.60
2019-05-20T05:09:16.461Z,1007.64
2019-05-20T05:10:16.488Z,1007.71
2019-05-20T05:11:16.437Z,1007.63
2019-05-20T05:12:16.428Z,1007.65
2019-05-20T05:13:16.440Z,1007.64
2019-05-20T05:14:16.426Z,1007.66
2019-05-20T05:15:16.417Z,1007.64
2019-05-20T05:16:16.411Z,1007.65
2019-05-20T05:17:16.421Z,1007.64
2019-05-20T05:18:16.356Z,1007.64
2019-05-20T05:19:16.348Z,1007.68
2019-05-20T05:20:18.492Z,1007.64
2019-05-20T05:21:16.316Z,1007.67
2019-05-20T05:22:16.393Z,1007.72
2019-05-20T05:23:16.336Z,1007.71
2019-05-20T05:24:16.286Z,1007.70
2019-05-20T05:25:16.308Z,1007.72
2019-05-20T05:26:16.307Z,1007.70
2019-05-20T05:27:16.276Z,1007.66
2019-05-20T05:28:16.263Z,1007.70
2019-05-20T05:29:16.268Z,1007.72
2019-05-20T05:30:16.231Z,1007.70
2019-05-20T05:31:16.226Z,1007.70
2019-05-20T05:32:16.255Z,1007.71
2019-05-20T05:33:16.206Z,1007.71
2019-05-20T05:34:16.223Z,1007.70
2019-05-20T05:35:16.176Z,1007.69
2019-05-20T05:36:26.088Z,1007.71
2019-05-20T05:37:16.156Z,1007.65
2019-05-20T05:38:16.151Z,1007.65
2019-05-20T05:39:16.127Z,1007.67
2019-05-20T05:40:16.128Z,1007.66
2019-05-20T05:41:16.135Z,1007.70
2019-05-20T05:42:16.107Z,1007.67
2019-05-20T05:43:16.112Z,1007.66
2019-05-20T05:44:16.157Z,1007.64
2019-05-20T05:45:16.067Z,1007.61
2019-05-20T05:46:16.065Z,1007.67
2019-05-20T05:47:16.070Z,1007.64
2019-05-20T05:48:16.060Z,1007.62
2019-05-20T05:49:16.025Z,1007.67
2019-05-20T05:50:16.033Z,1007.67
2019-05-20T05:51:16.028Z,1007.69
2019-05-20T05:52:16.077Z,1007.65
2019-05-20T05:53:15.976Z,1007.61
2019-05-20T05:54:15.998Z,1007.68
2019-05-20T05:55:16.024Z,1007.60
2019-05-20T05:56:15.970Z,1007.65
2019-05-20T05:57:16.006Z,1007.63
2019-05-20T05:58:15.950Z,1007.62
2019-05-20T05:59:15.988Z,1007.65
2019-05-20T06:00:15.926Z,1007.53
2019-05-20T06:01:15.913Z,1007.58
2019-05-20T06:02:15.935Z,1007.58
2019-05-20T06:03:15.893Z,1007.56
2019-05-20T06:04:15.875Z,1007.58
2019-05-20T06:05:15.877Z,1007.52
2019-05-20T06:06:15.859Z,1007.59
2019-05-20T06:07:26.173Z,1007.58
2019-05-20T06:08:15.847Z,1007.57
2019-05-20T06:09:15.817Z,1007.56
2019-05-20T06:10:15.808Z,1007.61
2019-05-20T06:11:15.816Z,1007.58
2019-05-20T06:12:15.787Z,1007.52
2019-05-20T06:13:15.798Z,1007.56
2019-05-20T06:14:15.767Z,1007.56
2019-05-20T06:15:15.785Z,1007.55
2019-05-20T06:16:15.751Z,1007.60
2019-05-20T06:17:15.785Z,1007.58
2019-05-20T06:18:15.719Z,1007.52
2019-05-20T06:19:15.708Z,1007.55
2019-05-20T06:20:15.708Z,1007.52
2019-05-20T06:21:15.690Z,1007.58
2019-05-20T06:22:15.691Z,1007.51
2019-05-20T06:23:15.678Z,1007.49
2019-05-20T06:24:15.651Z,1007.48
2019-05-20T06:25:15.673Z,1007.54
2019-05-20T06:26:15.660Z,1007.55
2019-05-20T06:27:15.655Z,1007.53
2019-05-20T06:28:15.669Z,1007.54
2019-05-20T06:29:15.603Z,1007.45
2019-05-20T06:30:15.594Z,1007.52
2019-05-20T06:31:15.594Z,1007.51
2019-05-20T06:32:15.715Z,1007.49
2019-05-20T06:33:15.579Z,1007.50
2019-05-20T06:34:15.631Z,1007.50
2019-05-20T06:35:15.577Z,1007.47
2019-05-20T06:36:26.484Z,1007.48
2019-05-20T06:37:16.523Z,1007.50
2019-05-20T06:38:26.168Z,1007.45
2019-05-20T06:39:15.521Z,1007.48
2019-05-20T06:40:15.535Z,1007.51
2019-05-20T06:41:15.500Z,1007.49
2019-05-20T06:42:15.517Z,1007.47
2019-05-20T06:43:15.460Z,1007.52
2019-05-20T06:44:15.478Z,1007.42
2019-05-20T06:45:15.473Z,1007.47
2019-05-20T06:46:15.439Z,1007.46
2019-05-20T06:47:15.430Z,1007.43
2019-05-20T06:48:15.414Z,1007.45
2019-05-20T06:49:15.407Z,1007.45
2019-05-20T06:50:15.429Z,1007.44
2019-05-20T06:51:15.389Z,1007.48
2019-05-20T06:52:15.371Z,1007.46
2019-05-20T06:53:15.357Z,1007.46
2019-05-20T06:54:15.339Z,1007.50
2019-05-20T06:55:15.338Z,1007.49
2019-05-20T06:56:15.328Z,1007.50
2019-05-20T06:57:15.482Z,1007.50
2019-05-20T06:58:15.372Z,1007.51
2019-05-20T06:59:15.338Z,1007.46
2019-05-20T07:00:15.284Z,1007.54
2019-05-20T07:01:15.279Z,1007.48
2019-05-20T07:02:15.279Z,1007.45
2019-05-20T07:03:15.244Z,1007.43
2019-05-20T07:04:15.247Z,1007.47
2019-05-20T07:05:15.251Z,1007.45
2019-05-20T07:06:15.218Z,1007.49
2019-05-20T07:07:20.848Z,1007.49
2019-05-20T07:08:16.219Z,1007.48
2019-05-20T07:09:26.239Z,1007.42
2019-05-20T07:10:15.192Z,1007.43
2019-05-20T07:11:15.161Z,1007.46
2019-05-20T07:12:15.162Z,1007.42
2019-05-20T07:13:16.315Z,1007.42
2019-05-20T07:14:15.122Z,1007.44
2019-05-20T07:15:15.135Z,1007.45
2019-05-20T07:16:15.131Z,1007.40
2019-05-20T07:17:15.102Z,1007.38
2019-05-20T07:18:15.098Z,1007.42
2019-05-20T07:19:15.150Z,1007.36
2019-05-20T07:20:15.203Z,1007.32
2019-05-20T07:21:15.082Z,1007.32
2019-05-20T07:22:15.094Z,1007.29
2019-05-20T07:23:15.048Z,1007.35
2019-05-20T07:24:15.036Z,1007.38
2019-05-20T07:25:15.094Z,1007.29
2019-05-20T07:26:15.032Z,1007.35
2019-05-20T07:27:15.001Z,1007.33
2019-05-20T07:28:15.032Z,1007.32
2019-05-20T07:29:14.971Z,1007.33
2019-05-20T07:30:15.730Z,1007.30
2019-05-20T07:31:14.988Z,1007.27
2019-05-20T07:32:14.965Z,1007.26
2019-05-20T07:33:14.943Z,1007.33
2019-05-20T07:34:14.941Z,1007.34
2019-05-20T07:35:28.630Z,1007.30
2019-05-20T07:36:15.932Z,1007.30
2019-05-20T07:37:14.894Z,1007.30
2019-05-20T07:38:14.926Z,1007.23
2019-05-20T07:39:14.860Z,1007.19
2019-05-20T07:40:25.246Z,1007.19
2019-05-20T07:41:14.850Z,1007.25
2019-05-20T07:42:14.879Z,1007.21
2019-05-20T07:43:14.817Z,1007.24
2019-05-20T07:44:14.817Z,1007.18
2019-05-20T07:45:14.825Z,1007.11
2019-05-20T07:46:14.798Z,1007.18
2019-05-20T07:47:14.801Z,1007.16
2019-05-20T07:48:14.816Z,1007.20
2019-05-20T07:49:14.752Z,1007.20
2019-05-20T07:50:14.769Z,1007.15
2019-05-20T07:51:14.755Z,1007.22
2019-05-20T07:52:14.756Z,1007.17
2019-05-20T07:53:14.756Z,1007.19
2019-05-20T07:54:14.717Z,1007.26
2019-05-20T07:55:14.692Z,1007.21
2019-05-20T07:56:14.733Z,1007.27
2019-05-20T07:57:14.696Z,1007.33
2019-05-20T07:58:14.678Z,1007.31
2019-05-20T07:59:14.664Z,1007.21
2019-05-20T08:00:14.638Z,1007.19
2019-05-20T08:01:14.655Z,1007.22
2019-05-20T08:02:14.628Z,1007.22
2019-05-20T08:03:14.614Z,1007.11
2019-05-20T08:04:14.617Z,1007.16
2019-05-20T08:05:14.601Z,1007.15
2019-05-20T08:06:14.579Z,1007.10
2019-05-20T08:07:27.303Z,1007.08
2019-05-20T08:08:15.558Z,1007.10
2019-05-20T08:09:14.571Z,1007.12
2019-05-20T08:10:14.557Z,1007.04
2019-05-20T08:11:25.270Z,1007.06
2019-05-20T08:12:14.525Z,1007.14
2019-05-20T08:13:14.526Z,1007.09
2019-05-20T08:14:14.543Z,1007.04
2019-05-20T08:15:14.486Z,1007.09
2019-05-20T08:16:14.479Z,1007.11
2019-05-20T08:17:14.455Z,1007.05
2019-05-20T08:18:14.480Z,1007.09
2019-05-20T08:19:14.448Z,1007.07
2019-05-20T08:20:14.461Z,1007.07
2019-05-20T08:21:14.421Z,1007.04
2019-05-20T08:22:14.426Z,1007.06
2019-05-20T08:23:14.423Z,1007.06
2019-05-20T08:24:14.410Z,1006.98
2019-05-20T08:25:14.387Z,1006.96
2019-05-20T08:26:14.367Z,1007.05
2019-05-20T08:27:14.352Z,1006.95
2019-05-20T08:28:14.354Z,1006.97
2019-05-20T08:29:14.347Z,1006.94
2019-05-20T08:30:14.478Z,1006.97
2019-05-20T08:31:19.017Z,1006.92
2019-05-20T08:32:14.552Z,1006.99
2019-05-20T08:33:15.171Z,1006.90
2019-05-20T08:34:15.222Z,1006.96
2019-05-20T08:35:15.556Z,1006.98
2019-05-20T08:36:14.339Z,1006.98
2019-05-20T08:37:14.488Z,1006.95
2019-05-20T08:38:14.345Z,1006.91
2019-05-20T08:39:14.296Z,1006.95
2019-05-20T08:40:14.261Z,1006.93
2019-05-20T08:41:14.576Z,1006.97
2019-05-20T08:42:27.162Z,1006.89
2019-05-20T08:43:14.245Z,1006.97
2019-05-20T08:44:14.197Z,1006.98
2019-05-20T08:45:14.183Z,1006.96
2019-05-20T08:46:14.195Z,1006.96
2019-05-20T08:47:14.157Z,1006.93
2019-05-20T08:48:14.137Z,1006.93
2019-05-20T08:49:14.255Z,1006.93
2019-05-20T08:50:16.346Z,1007.03
2019-05-20T08:51:14.106Z,1006.99
2019-05-20T08:52:14.162Z,1007.00
2019-05-20T08:53:14.086Z,1006.96
2019-05-20T08:54:14.074Z,1007.08
2019-05-20T08:55:14.066Z,1006.99
2019-05-20T08:56:14.056Z,1007.00
2019-05-20T08:57:14.131Z,1007.06
2019-05-20T08:58:14.072Z,1006.93
2019-05-20T08:59:14.144Z,1006.94
2019-05-20T09:00:14.044Z,1007.03
2019-05-20T09:01:13.998Z,1006.98
2019-05-20T09:02:13.983Z,1007.02
2019-05-20T09:03:14.022Z,1007.01
2019-05-20T09:04:13.979Z,1007.02
2019-05-20T09:05:13.976Z,1007.03
2019-05-20T09:06:13.956Z,1006.99
2019-05-20T09:07:13.938Z,1007.00
2019-05-20T09:08:13.916Z,1007.00
2019-05-20T09:09:14.039Z,1006.97
2019-05-20T09:10:13.968Z,1006.97
2019-05-20T09:11:13.904Z,1006.96
2019-05-20T09:12:13.884Z,1006.98
2019-05-20T09:13:23.885Z,1006.96
2019-05-20T09:14:13.871Z,1006.99
2019-05-20T09:15:13.881Z,1007.02
2019-05-20T09:16:13.841Z,1006.96
2019-05-20T09:17:13.842Z,1006.99
2019-05-20T09:18:13.815Z,1006.99
2019-05-20T09:19:13.849Z,1006.94
2019-05-20T09:20:13.856Z,1006.96
2019-05-20T09:21:13.906Z,1006.92
2019-05-20T09:22:13.780Z,1006.92
2019-05-20T09:23:13.780Z,1006.86
2019-05-20T09:24:14.158Z,1006.86
2019-05-20T09:25:14.240Z,1006.88
2019-05-20T09:26:13.897Z,1006.89
2019-05-20T09:27:13.751Z,1006.83
2019-05-20T09:28:13.731Z,1006.89
2019-05-20T09:29:13.755Z,1006.80
2019-05-20T09:30:13.868Z,1006.80
2019-05-20T09:31:13.810Z,1006.87
2019-05-20T09:32:13.661Z,1006.78
2019-05-20T09:33:13.696Z,1006.87
2019-05-20T09:34:13.677Z,1006.88
2019-05-20T09:35:13.674Z,1006.89
2019-05-20T09:36:13.650Z,1006.89
2019-05-20T09:37:13.689Z,1006.82
2019-05-20T09:38:20.359Z,1006.84
2019-05-20T09:39:14.623Z,1006.89
2019-05-20T09:40:13.750Z,1006.88
2019-05-20T09:41:13.601Z,1006.85
2019-05-20T09:42:13.586Z,1006.86
2019-05-20T09:43:13.573Z,1006.80
2019-05-20T09:44:23.824Z,1006.82
2019-05-20T09:45:13.544Z,1006.82
2019-05-20T09:46:13.534Z,1006.81
2019-05-20T09:47:13.531Z,1006.78
2019-05-20T09:48:13.547Z,1006.85
2019-05-20T09:49:13.493Z,1006.83
2019-05-20T09:50:13.518Z,1006.83
2019-05-20T09:51:13.469Z,1006.78
2019-05-20T09:52:13.556Z,1006.78
2019-05-20T09:53:13.490Z,1006.83
2019-05-20T09:54:13.495Z,1006.72
2019-05-20T09:55:13.490Z,1006.80
2019-05-20T09:56:13.437Z,1006.81
2019-05-20T09:57:13.446Z,1006.83
2019-05-20T09:58:13.415Z,1006.82
2019-05-20T09:59:16.337Z,1006.80
2019-05-20T10:00:13.373Z,1006.75
2019-05-20T10:01:13.380Z,1006.72
2019-05-20T10:02:13.353Z,1006.76
2019-05-20T10:03:13.458Z,1006.77
2019-05-20T10:04:13.440Z,1006.70
2019-05-20T10:05:13.339Z,1006.69
2019-05-20T10:06:13.315Z,1006.66
2019-05-20T10:07:13.314Z,1006.72
2019-05-20T10:08:13.307Z,1006.73
2019-05-20T10:09:13.308Z,1006.74
2019-05-20T10:10:13.278Z,1006.65
2019-05-20T10:11:13.274Z,1006.64
2019-05-20T10:12:13.255Z,1006.69
2019-05-20T10:13:13.265Z,1006.65
2019-05-20T10:14:13.273Z,1006.62
2019-05-20T10:15:23.391Z,1006.57
2019-05-20T10:16:13.234Z,1006.58
2019-05-20T10:17:13.198Z,1006.60
2019-05-20T10:18:13.188Z,1006.54
2019-05-20T10:19:13.168Z,1006.62
2019-05-20T10:20:13.197Z,1006.53
2019-05-20T10:21:13.170Z,1006.58
2019-05-20T10:22:13.148Z,1006.54
2019-05-20T10:23:15.774Z,1006.56
2019-05-20T10:24:13.151Z,1006.53
2019-05-20T10:25:13.120Z,1006.50
2019-05-20T10:26:13.113Z,1006.49
2019-05-20T10:27:13.104Z,1006.50
2019-05-20T10:28:13.079Z,1006.51
2019-05-20T10:29:13.099Z,1006.53
2019-05-20T10:30:13.073Z,1006.48
2019-05-20T10:31:13.062Z,1006.43
2019-05-20T10:32:13.047Z,1006.47
2019-05-20T10:33:13.041Z,1006.52
2019-05-20T10:34:13.019Z,1006.48
2019-05-20T10:35:12.998Z,1006.47
2019-05-20T10:36:13.043Z,1006.47
2019-05-20T10:37:13.011Z,1006.47
2019-05-20T10:38:12.987Z,1006.50
2019-05-20T10:39:12.980Z,1006.47
2019-05-20T10:40:12.956Z,1006.53
2019-05-20T10:41:12.953Z,1006.45
2019-05-20T10:42:12.952Z,1006.44
2019-05-20T10:43:12.963Z,1006.46
2019-05-20T10:44:12.900Z,1006.41
2019-05-20T10:45:12.980Z,1006.42
2019-05-20T10:46:22.851Z,1006.43
2019-05-20T10:47:12.896Z,1006.46
2019-05-20T10:48:12.881Z,1006.39
2019-05-20T10:49:12.884Z,1006.47
2019-05-20T10:50:12.855Z,1006.35
2019-05-20T10:51:12.854Z,1006.40
2019-05-20T10:52:12.824Z,1006.42
2019-05-20T10:53:12.834Z,1006.38
2019-05-20T10:54:12.805Z,1006.42
2019-05-20T10:55:12.811Z,1006.41
2019-05-20T10:56:13.291Z,1006.39
2019-05-20T10:57:12.804Z,1006.36
2019-05-20T10:58:12.878Z,1006.39
2019-05-20T10:59:12.844Z,1006.36
2019-05-20T11:00:12.747Z,1006.32
2019-05-20T11:01:12.743Z,1006.32
2019-05-20T11:02:12.714Z,1006.32
2019-05-20T11:03:12.725Z,1006.32
2019-05-20T11:04:12.717Z,1006.38
2019-05-20T11:05:12.732Z,1006.30
2019-05-20T11:06:12.765Z,1006.26
2019-05-20T11:07:12.667Z,1006.25
2019-05-20T11:08:12.676Z,1006.30
2019-05-20T11:09:14.324Z,1006.22
2019-05-20T11:10:12.645Z,1006.32
2019-05-20T11:11:14.300Z,1006.19
2019-05-20T11:12:12.642Z,1006.27
2019-05-20T11:13:12.643Z,1006.27
2019-05-20T11:14:12.644Z,1006.26
2019-05-20T11:15:12.615Z,1006.36
2019-05-20T11:16:12.596Z,1006.30
2019-05-20T11:17:23.641Z,1006.24
2019-05-20T11:18:12.628Z,1006.32
2019-05-20T11:19:12.552Z,1006.31
2019-05-20T11:20:12.555Z,1006.36
2019-05-20T11:21:12.531Z,1006.31
2019-05-20T11:22:12.564Z,1006.26
2019-05-20T11:23:12.537Z,1006.28
2019-05-20T11:24:12.494Z,1006.22
2019-05-20T11:25:12.512Z,1006.25
2019-05-20T11:26:12.485Z,1006.19
2019-05-20T11:27:12.490Z,1006.19
2019-05-20T11:28:12.506Z,1006.27
2019-05-20T11:29:12.507Z,1006.24
2019-05-20T11:30:12.450Z,1006.27
2019-05-20T11:31:12.432Z,1006.22
2019-05-20T11:32:13.231Z,1006.22
2019-05-20T11:33:12.434Z,1006.25
2019-05-20T11:34:12.418Z,1006.17
2019-05-20T11:35:12.412Z,1006.16
2019-05-20T11:36:12.415Z,1006.16
2019-05-20T11:37:12.363Z,1006.15
2019-05-20T11:38:12.374Z,1006.21
2019-05-20T11:39:12.340Z,1006.17
2019-05-20T11:40:13.284Z,1006.12
2019-05-20T11:41:12.345Z,1006.17
2019-05-20T11:42:12.307Z,1006.15
2019-05-20T11:43:12.307Z,1006.15
2019-05-20T11:44:12.304Z,1006.13
2019-05-20T11:45:12.294Z,1006.06
2019-05-20T11:46:12.263Z,1006.10
2019-05-20T11:47:12.261Z,1006.09
2019-05-20T11:48:22.185Z,1006.14
2019-05-20T11:49:12.232Z,1006.15
2019-05-20T11:50:12.244Z,1006.16
2019-05-20T11:51:12.231Z,1006.14
2019-05-20T11:52:12.223Z,1006.11
2019-05-20T11:53:12.204Z,1006.08
2019-05-20T11:54:12.206Z,1006.08
2019-05-20T11:55:12.175Z,1006.04
2019-05-20T11:56:12.524Z,1006.11
2019-05-20T11:57:12.155Z,1006.10
2019-05-20T11:58:16.181Z,1006.08
2019-05-20T11:59:12.134Z,1006.10
2019-05-20T12:00:12.162Z,1006.07
2019-05-20T12:01:12.101Z,1006.10
2019-05-20T12:02:12.125Z,1006.13
2019-05-20T12:03:12.164Z,1006.11
2019-05-20T12:04:12.094Z,1006.08
2019-05-20T12:05:12.081Z,1006.07